sensor_id;sensor_type;location;lat;lon;timestamp;pressure;altitude;pressure_sealevel;temperature;humidity
4167;BME280;2097;51.104;7.150;2023-03-25T00:01:48;97715.09;;;7.57;100.00
4167;BME280;2097;51.104;7.150;2023-03-25T00:04:14;97718.41;;;7.59;100.00
4167;BME280;2097;51.104;7.150;2023-03-25T00:06:42;97715.53;;;7.63;100.00
4167;BME280;2097;51.104;7.150;2023-03-25T00:09:12;97719.66;;;7.66;100.00
4167;BME280;2097;51.104;7.150;2023-03-25T00:11:38;97724.44;;;7.72;100.00
4167;BME280;2097;51.104;7.150;2023-03-25T00:14:05;97719.91;;;7.75;100.00
4167;BME280;2097;51.104;7.150;2023-03-25T00:16:32;97716.31;;;7.78;100.00
4167;BME280;2097;51.104;7.150;2023-03-25T00:18:59;97711.66;;;7.83;100.00
4167;BME280;2097;51.104;7.150;2023-03-25T00:21:26;97708.91;;;7.86;100.00
4167;BME280;2097;51.104;7.150;2023-03-25T00:23:54;97704.66;;;7.85;100.00
4167;BME280;2097;51.104;7.150;2023-03-25T00:26:22;97719.31;;;7.84;100.00
4167;BME280;2097;51.104;7.150;2023-03-25T00:28:49;97695.63;;;7.78;100.00
4167;BME280;2097;51.104;7.150;2023-03-25T00:31:15;97697.78;;;7.71;100.00
4167;BME280;2097;51.104;7.150;2023-03-25T00:33:42;97694.69;;;7.66;100.00
4167;BME280;2097;51.104;7.150;2023-03-25T00:36:10;97696.22;;;7.69;100.00
4167;BME280;2097;51.104;7.150;2023-03-25T00:38:39;97706.28;;;7.73;100.00
4167;BME280;2097;51.104;7.150;2023-03-25T00:41:13;97693.97;;;7.77;100.00
4167;BME280;2097;51.104;7.150;2023-03-25T00:43:43;97700.63;;;7.81;100.00
4167;BME280;2097;51.104;7.150;2023-03-25T00:46:11;97698.22;;;7.78;100.00
4167;BME280;2097;51.104;7.150;2023-03-25T00:48:37;97699.50;;;7.85;100.00
4167;BME280;2097;51.104;7.150;2023-03-25T00:51:06;97668.00;;;7.66;100.00
4167;BME280;2097;51.104;7.150;2023-03-25T00:53:35;97695.06;;;7.87;100.00
4167;BME280;2097;51.104;7.150;2023-03-25T00:56:02;97700.09;;;7.88;100.00
4167;BME280;2097;51.104;7.150;2023-03-25T00:58:29;97705.28;;;7.88;100.00
4167;BME280;2097;51.104;7.150;2023-03-25T01:00:58;97692.47;;;7.87;100.00
4167;BME280;2097;51.104;7.150;2023-03-25T01:03:25;97690.81;;;7.86;100.00
4167;BME280;2097;51.104;7.150;2023-03-25T01:05:54;97694.13;;;7.88;100.00
4167;BME280;2097;51.104;7.150;2023-03-25T01:08:22;97685.47;;;7.88;100.00
4167;BME280;2097;51.104;7.150;2023-03-25T01:10:51;97681.09;;;7.89;100.00
4167;BME280;2097;51.104;7.150;2023-03-25T01:13:18;97676.34;;;7.83;100.00
4167;BME280;2097;51.104;7.150;2023-03-25T01:15:46;97687.84;;;7.91;100.00
4167;BME280;2097;51.104;7.150;2023-03-25T01:18:14;97680.81;;;7.93;100.00
4167;BME280;2097;51.104;7.150;2023-03-25T01:20:41;97687.66;;;7.94;100.00
4167;BME280;2097;51.104;7.150;2023-03-25T01:23:08;97678.97;;;7.95;100.00
4167;BME280;2097;51.104;7.150;2023-03-25T01:25:35;97686.53;;;7.98;100.00
4167;BME280;2097;51.104;7.150;2023-03-25T01:28:03;97670.97;;;7.86;100.00
4167;BME280;2097;51.104;7.150;2023-03-25T01:30:30;97689.91;;;7.99;100.00
4167;BME280;2097;51.104;7.150;2023-03-25T01:32:57;97683.00;;;7.99;100.00
4167;BME280;2097;51.104;7.150;2023-03-25T01:35:26;97679.59;;;7.99;100.00
4167;BME280;2097;51.104;7.150;2023-03-25T01:37:52;97682.78;;;8.02;100.00
4167;BME280;2097;51.104;7.150;2023-03-25T01:40:21;97687.97;;;8.02;100.00
4167;BME280;2097;51.104;7.150;2023-03-25T01:42:49;97687.16;;;8.02;100.00
4167;BME280;2097;51.104;7.150;2023-03-25T01:45:21;97687.97;;;8.02;100.00
4167;BME280;2097;51.104;7.150;2023-03-25T01:47:52;97680.31;;;8.01;100.00
4167;BME280;2097;51.104;7.150;2023-03-25T01:50:22;97682.09;;;8.00;100.00
4167;BME280;2097;51.104;7.150;2023-03-25T01:52:56;97679.38;;;8.02;100.00
4167;BME280;2097;51.104;7.150;2023-03-25T01:55:24;97676.94;;;8.00;100.00
4167;BME280;2097;51.104;7.150;2023-03-25T01:57:53;97672.56;;;8.01;100.00
4167;BME280;2097;51.104;7.150;2023-03-25T02:00:22;97674.34;;;8.00;100.00
4167;BME280;2097;51.104;7.150;2023-03-25T02:02:51;97675.16;;;8.01;100.00
4167;BME280;2097;51.104;7.150;2023-03-25T02:05:28;97674.22;;;8.02;100.00
4167;BME280;2097;51.104;7.150;2023-03-25T02:07:58;97670.00;;;8.01;100.00
4167;BME280;2097;51.104;7.150;2023-03-25T02:10:25;97672.69;;;7.99;100.00
4167;BME280;2097;51.104;7.150;2023-03-25T02:12:52;97669.38;;;7.97;100.00
4167;BME280;2097;51.104;7.150;2023-03-25T02:15:19;97656.53;;;7.96;100.00
4167;BME280;2097;51.104;7.150;2023-03-25T02:18:25;97664.22;;;7.97;100.00
4167;BME280;2097;51.104;7.150;2023-03-25T02:24:39;97667.06;;;7.93;100.00
4167;BME280;2097;51.104;7.150;2023-03-25T02:27:22;97674.81;;;7.93;100.00
4167;BME280;2097;51.104;7.150;2023-03-25T02:36:19;97623.81;;;7.58;100.00
4167;BME280;2097;51.104;7.150;2023-03-25T02:38:58;97670.97;;;7.86;100.00
4167;BME280;2097;51.104;7.150;2023-03-25T02:41:30;97675.53;;;7.83;100.00
4167;BME280;2097;51.104;7.150;2023-03-25T02:44:06;97662.72;;;7.81;100.00
4167;BME280;2097;51.104;7.150;2023-03-25T02:46:34;97661.16;;;7.79;100.00
4167;BME280;2097;51.104;7.150;2023-03-25T02:49:04;97669.00;;;7.77;100.00
4167;BME280;2097;51.104;7.150;2023-03-25T02:51:36;97664.84;;;7.75;100.00
4167;BME280;2097;51.104;7.150;2023-03-25T02:54:09;97669.28;;;7.73;100.00
4167;BME280;2097;51.104;7.150;2023-03-25T02:56:38;97672.78;;;7.72;100.00
4167;BME280;2097;51.104;7.150;2023-03-25T02:59:09;97625.91;;;7.39;100.00
4167;BME280;2097;51.104;7.150;2023-03-25T03:01:39;97669.47;;;7.70;100.00
4167;BME280;2097;51.104;7.150;2023-03-25T03:04:06;97667.81;;;7.69;100.00
4167;BME280;2097;51.104;7.150;2023-03-25T03:06:37;97646.94;;;7.59;100.00
4167;BME280;2097;51.104;7.150;2023-03-25T03:09:16;97663.50;;;7.69;100.00
4167;BME280;2097;51.104;7.150;2023-03-25T03:11:55;97657.41;;;7.70;100.00
4167;BME280;2097;51.104;7.150;2023-03-25T03:14:33;97658.22;;;7.71;100.00
4167;BME280;2097;51.104;7.150;2023-03-25T03:17:07;97649.75;;;7.69;100.00
4167;BME280;2097;51.104;7.150;2023-03-25T03:19:40;97655.75;;;7.69;100.00
4167;BME280;2097;51.104;7.150;2023-03-25T03:22:23;97653.19;;;7.69;100.00
4167;BME280;2097;51.104;7.150;2023-03-25T03:25:00;97652.31;;;7.69;100.00
4167;BME280;2097;51.104;7.150;2023-03-25T03:27:30;97654.84;;;7.70;100.00
4167;BME280;2097;51.104;7.150;2023-03-25T03:30:04;97653.25;;;7.68;100.00
4167;BME280;2097;51.104;7.150;2023-03-25T03:32:37;97651.53;;;7.68;100.00
4167;BME280;2097;51.104;7.150;2023-03-25T03:35:09;97652.44;;;7.67;100.00
4167;BME280;2097;51.104;7.150;2023-03-25T03:37:41;97648.19;;;7.66;100.00
4167;BME280;2097;51.104;7.150;2023-03-25T03:40:14;97647.38;;;7.66;100.00
4167;BME280;2097;51.104;7.150;2023-03-25T03:42:44;97650.78;;;7.66;100.00
4167;BME280;2097;51.104;7.150;2023-03-25T03:45:15;97643.03;;;7.66;100.00
4167;BME280;2097;51.104;7.150;2023-03-25T03:47:45;97647.38;;;7.66;100.00
4167;BME280;2097;51.104;7.150;2023-03-25T03:50:17;97649.03;;;7.67;100.00
4167;BME280;2097;51.104;7.150;2023-03-25T03:52:50;97653.38;;;7.66;100.00
4167;BME280;2097;51.104;7.150;2023-03-25T03:55:23;97660.28;;;7.66;100.00
4167;BME280;2097;51.104;7.150;2023-03-25T03:57:55;97663.59;;;7.68;100.00
4167;BME280;2097;51.104;7.150;2023-03-25T04:00:26;97669.66;;;7.67;100.00
4167;BME280;2097;51.104;7.150;2023-03-25T04:02:58;97663.69;;;7.66;100.00
4167;BME280;2097;51.104;7.150;2023-03-25T04:05:27;97666.28;;;7.66;100.00
4167;BME280;2097;51.104;7.150;2023-03-25T04:07:59;97661.00;;;7.68;100.00
4167;BME280;2097;51.104;7.150;2023-03-25T04:10:34;97659.25;;;7.68;100.00
4167;BME280;2097;51.104;7.150;2023-03-25T04:13:07;97662.66;;;7.69;100.00
4167;BME280;2097;51.104;7.150;2023-03-25T04:15:36;97663.59;;;7.68;100.00
4167;BME280;2097;51.104;7.150;2023-03-25T04:18:03;97661.84;;;7.68;100.00
4167;BME280;2097;51.104;7.150;2023-03-25T04:20:32;97671.25;;;7.69;100.00
4167;BME280;2097;51.104;7.150;2023-03-25T04:23:00;97662.66;;;7.69;100.00
4167;BME280;2097;51.104;7.150;2023-03-25T04:25:30;97667.75;;;7.70;100.00
4167;BME280;2097;51.104;7.150;2023-03-25T04:27:58;97670.41;;;7.69;100.00
4167;BME280;2097;51.104;7.150;2023-03-25T04:30:26;97670.50;;;7.67;100.00
4167;BME280;2097;51.104;7.150;2023-03-25T04:32:54;97677.34;;;7.68;100.00
4167;BME280;2097;51.104;7.150;2023-03-25T04:35:21;97672.16;;;7.68;100.00
4167;BME280;2097;51.104;7.150;2023-03-25T04:37:50;97660.78;;;7.58;100.00
4167;BME280;2097;51.104;7.150;2023-03-25T04:40:19;97683.50;;;7.66;100.00
4167;BME280;2097;51.104;7.150;2023-03-25T04:42:47;97672.47;;;7.64;100.00
4167;BME280;2097;51.104;7.150;2023-03-25T04:45:14;97669.16;;;7.62;100.00
4167;BME280;2097;51.104;7.150;2023-03-25T04:47:42;97567.13;;;6.91;100.00
4167;BME280;2097;51.104;7.150;2023-03-25T04:50:18;97663.06;;;7.63;100.00
4167;BME280;2097;51.104;7.150;2023-03-25T04:52:46;97671.63;;;7.63;100.00
4167;BME280;2097;51.104;7.150;2023-03-25T04:55:13;97666.38;;;7.65;100.00
4167;BME280;2097;51.104;7.150;2023-03-25T04:57:43;97667.19;;;7.65;100.00
4167;BME280;2097;51.104;7.150;2023-03-25T05:00:13;97681.88;;;7.65;100.00
4167;BME280;2097;51.104;7.150;2023-03-25T05:02:43;97672.38;;;7.65;100.00
4167;BME280;2097;51.104;7.150;2023-03-25T05:05:12;97667.31;;;7.64;100.00
4167;BME280;2097;51.104;7.150;2023-03-25T05:07:43;97666.59;;;7.62;100.00
4167;BME280;2097;51.104;7.150;2023-03-25T05:10:11;97664.09;;;7.60;100.00
4167;BME280;2097;51.104;7.150;2023-03-25T05:12:38;97660.69;;;7.60;100.00
4167;BME280;2097;51.104;7.150;2023-03-25T05:15:06;97661.50;;;7.60;100.00
4167;BME280;2097;51.104;7.150;2023-03-25T05:17:35;97650.38;;;7.60;100.00
4167;BME280;2097;51.104;7.150;2023-03-25T05:20:02;97654.59;;;7.61;100.00
4167;BME280;2097;51.104;7.150;2023-03-25T05:22:31;97655.41;;;7.61;100.00
4167;BME280;2097;51.104;7.150;2023-03-25T05:24:58;97662.34;;;7.61;100.00
4167;BME280;2097;51.104;7.150;2023-03-25T05:27:27;97661.41;;;7.62;100.00
4167;BME280;2097;51.104;7.150;2023-03-25T05:29:55;97654.59;;;7.61;100.00
4167;BME280;2097;51.104;7.150;2023-03-25T05:32:23;97660.69;;;7.60;100.00
4167;BME280;2097;51.104;7.150;2023-03-25T05:34:51;97664.94;;;7.61;100.00
4167;BME280;2097;51.104;7.150;2023-03-25T05:37:18;97665.75;;;7.61;100.00
4167;BME280;2097;51.104;7.150;2023-03-25T05:39:45;97670.09;;;7.61;100.00
4167;BME280;2097;51.104;7.150;2023-03-25T05:42:12;97675.25;;;7.61;100.00
4167;BME280;2097;51.104;7.150;2023-03-25T05:44:39;97527.53;;;6.78;100.00
4167;BME280;2097;51.104;7.150;2023-03-25T05:47:11;97672.03;;;7.57;100.00
4167;BME280;2097;51.104;7.150;2023-03-25T05:49:38;97673.06;;;7.55;100.00
4167;BME280;2097;51.104;7.150;2023-03-25T05:52:08;97660.84;;;7.44;100.00
4167;BME280;2097;51.104;7.150;2023-03-25T05:54:36;97678.31;;;7.53;100.00
4167;BME280;2097;51.104;7.150;2023-03-25T05:57:03;97672.13;;;7.56;100.00
4167;BME280;2097;51.104;7.150;2023-03-25T05:59:30;97671.94;;;7.59;100.00
4167;BME280;2097;51.104;7.150;2023-03-25T06:01:57;97670.91;;;7.61;100.00
4167;BME280;2097;51.104;7.150;2023-03-25T06:04:24;97668.97;;;7.65;100.00
4167;BME280;2097;51.104;7.150;2023-03-25T06:06:51;97656.84;;;7.53;100.00
4167;BME280;2097;51.104;7.150;2023-03-25T06:09:19;97679.00;;;7.69;100.00
4167;BME280;2097;51.104;7.150;2023-03-25T06:11:46;97678.81;;;7.72;100.00
4167;BME280;2097;51.104;7.150;2023-03-25T06:14:17;97677.75;;;7.75;100.00
4167;BME280;2097;51.104;7.150;2023-03-25T06:16:45;97674.06;;;7.79;100.00
4167;BME280;2097;51.104;7.150;2023-03-25T06:19:14;97671.41;;;7.80;100.00
4167;BME280;2097;51.104;7.150;2023-03-25T06:21:42;97678.09;;;7.83;100.00
4167;BME280;2097;51.104;7.150;2023-03-25T06:24:13;97674.59;;;7.84;100.00
4167;BME280;2097;51.104;7.150;2023-03-25T06:26:41;97678.09;;;7.83;100.00
4167;BME280;2097;51.104;7.150;2023-03-25T06:29:08;97680.16;;;7.78;100.00
4167;BME280;2097;51.104;7.150;2023-03-25T06:31:36;97688.47;;;7.69;100.00
4167;BME280;2097;51.104;7.150;2023-03-25T06:34:02;97677.09;;;7.59;100.00
4167;BME280;2097;51.104;7.150;2023-03-25T06:36:29;97677.69;;;7.50;100.00
4167;BME280;2097;51.104;7.150;2023-03-25T06:38:59;97675.47;;;7.44;100.00
4167;BME280;2097;51.104;7.150;2023-03-25T06:41:25;97673.28;;;7.38;100.00
4167;BME280;2097;51.104;7.150;2023-03-25T06:43:54;97656.28;;;7.21;100.00
4167;BME280;2097;51.104;7.150;2023-03-25T06:46:20;97677.28;;;7.29;100.00
4167;BME280;2097;51.104;7.150;2023-03-25T06:48:47;97668.78;;;7.27;100.00
4167;BME280;2097;51.104;7.150;2023-03-25T06:51:14;97684.38;;;7.26;100.00
4167;BME280;2097;51.104;7.150;2023-03-25T06:53:41;97687.03;;;7.24;100.00
4167;BME280;2097;51.104;7.150;2023-03-25T06:56:08;97675.06;;;7.23;100.00
4167;BME280;2097;51.104;7.150;2023-03-25T06:58:35;97682.72;;;7.25;100.00
4167;BME280;2097;51.104;7.150;2023-03-25T07:01:03;97677.66;;;7.23;100.00
4167;BME280;2097;51.104;7.150;2023-03-25T07:03:31;97688.63;;;7.27;100.00
4167;BME280;2097;51.104;7.150;2023-03-25T07:05:59;97613.41;;;6.92;100.00
4167;BME280;2097;51.104;7.150;2023-03-25T07:08:25;97666.66;;;7.34;100.00
4167;BME280;2097;51.104;7.150;2023-03-25T07:10:52;97680.56;;;7.45;100.00
4167;BME280;2097;51.104;7.150;2023-03-25T07:13:19;97688.00;;;7.50;100.00
4167;BME280;2097;51.104;7.150;2023-03-25T07:15:46;97693.78;;;7.53;100.00
4167;BME280;2097;51.104;7.150;2023-03-25T07:18:14;97680.81;;;7.55;100.00
4167;BME280;2097;51.104;7.150;2023-03-25T07:20:41;97688.25;;;7.59;100.00
4167;BME280;2097;51.104;7.150;2023-03-25T07:23:08;97696.72;;;7.61;100.00
4167;BME280;2097;51.104;7.150;2023-03-25T07:25:35;97707.69;;;7.65;100.00
4167;BME280;2097;51.104;7.150;2023-03-25T07:28:02;97707.47;;;7.68;100.00
4167;BME280;2097;51.104;7.150;2023-03-25T07:30:29;97708.84;;;7.73;100.00
4167;BME280;2097;51.104;7.150;2023-03-25T07:32:57;97702.38;;;7.80;100.00
4167;BME280;2097;51.104;7.150;2023-03-25T07:35:25;97718.31;;;7.87;100.00
4167;BME280;2097;51.104;7.150;2023-03-25T07:37:52;97717.91;;;7.92;100.00
4167;BME280;2097;51.104;7.150;2023-03-25T07:40:19;97718.34;;;7.99;100.00
4167;BME280;2097;51.104;7.150;2023-03-25T07:42:45;97723.94;;;8.05;100.00
4167;BME280;2097;51.104;7.150;2023-03-25T07:45:12;97721.78;;;8.12;100.00
4167;BME280;2097;51.104;7.150;2023-03-25T07:47:40;97699.31;;;8.00;100.00
4167;BME280;2097;51.104;7.150;2023-03-25T07:50:07;97715.97;;;8.08;100.00
4167;BME280;2097;51.104;7.150;2023-03-25T07:52:35;97718.56;;;8.08;100.00
4167;BME280;2097;51.104;7.150;2023-03-25T07:55:03;97724.78;;;8.06;100.00
4167;BME280;2097;51.104;7.150;2023-03-25T07:57:30;97728.28;;;8.05;100.00
4167;BME280;2097;51.104;7.150;2023-03-25T07:59:57;97722.00;;;8.09;100.00
4167;BME280;2097;51.104;7.150;2023-03-25T08:02:24;97713.94;;;8.13;100.00
4167;BME280;2097;51.104;7.150;2023-03-25T08:04:51;97728.34;;;8.17;100.00
4167;BME280;2097;51.104;7.150;2023-03-25T08:07:18;97723.16;;;8.17;100.00
4167;BME280;2097;51.104;7.150;2023-03-25T08:09:47;97722.25;;;8.18;100.00
4167;BME280;2097;51.104;7.150;2023-03-25T08:12:13;97739.22;;;8.22;100.00
4167;BME280;2097;51.104;7.150;2023-03-25T08:14:41;97736.63;;;8.22;100.00
4167;BME280;2097;51.104;7.150;2023-03-25T08:17:07;97738.91;;;8.27;100.00
4167;BME280;2097;51.104;7.150;2023-03-25T08:19:34;97745.63;;;8.29;100.00
4167;BME280;2097;51.104;7.150;2023-03-25T08:22:02;97738.69;;;8.30;100.00
4167;BME280;2097;51.104;7.150;2023-03-25T08:24:29;97748.03;;;8.32;100.00
4167;BME280;2097;51.104;7.150;2023-03-25T08:26:58;97742.66;;;8.35;100.00
4167;BME280;2097;51.104;7.150;2023-03-25T08:29:26;97745.31;;;8.34;100.00
4167;BME280;2097;51.104;7.150;2023-03-25T08:31:54;97751.53;;;8.31;100.00
4167;BME280;2097;51.104;7.150;2023-03-25T08:34:21;97749.69;;;8.33;100.00
4167;BME280;2097;51.104;7.150;2023-03-25T08:36:49;97764.69;;;8.41;100.00
4167;BME280;2097;51.104;7.150;2023-03-25T08:39:16;97757.66;;;8.55;100.00
4167;BME280;2097;51.104;7.150;2023-03-25T08:41:44;97755.31;;;8.77;100.00
4167;BME280;2097;51.104;7.150;2023-03-25T08:44:12;97749.72;;;8.96;100.00
4167;BME280;2097;51.104;7.150;2023-03-25T08:46:39;97749.94;;;9.05;100.00
4167;BME280;2097;51.104;7.150;2023-03-25T08:49:06;97741.84;;;9.09;100.00
4167;BME280;2097;51.104;7.150;2023-03-25T08:51:33;97740.41;;;9.05;100.00
4167;BME280;2097;51.104;7.150;2023-03-25T08:54:00;97753.75;;;9.00;100.00
4167;BME280;2097;51.104;7.150;2023-03-25T08:56:27;97753.75;;;9.00;100.00
4167;BME280;2097;51.104;7.150;2023-03-25T08:58:53;97742.91;;;9.07;100.00
4167;BME280;2097;51.104;7.150;2023-03-25T09:01:23;97747.63;;;9.13;100.00
4167;BME280;2097;51.104;7.150;2023-03-25T09:03:50;97748.81;;;9.09;99.67
4167;BME280;2097;51.104;7.150;2023-03-25T09:06:17;97563.03;;;7.91;99.45
4167;BME280;2097;51.104;7.150;2023-03-25T09:08:43;97745.16;;;9.11;99.64
4167;BME280;2097;51.104;7.150;2023-03-25T09:11:10;97759.34;;;9.18;99.33
4167;BME280;2097;51.104;7.150;2023-03-25T09:13:37;97751.78;;;9.28;99.14
4167;BME280;2097;51.104;7.150;2023-03-25T09:16:05;97746.16;;;9.34;98.72
4167;BME280;2097;51.104;7.150;2023-03-25T09:18:33;97742.81;;;9.44;98.30
4167;BME280;2097;51.104;7.150;2023-03-25T09:21:02;97747.03;;;9.58;97.86
4167;BME280;2097;51.104;7.150;2023-03-25T09:23:29;97740.22;;;9.80;97.38
4167;BME280;2097;51.104;7.150;2023-03-25T09:26:01;97760.69;;;9.96;96.39
4167;BME280;2097;51.104;7.150;2023-03-25T09:28:28;97764.19;;;10.07;96.16
4167;BME280;2097;51.104;7.150;2023-03-25T09:30:55;97759.19;;;10.17;95.17
4167;BME280;2097;51.104;7.150;2023-03-25T09:33:25;97768.84;;;10.15;94.72
4167;BME280;2097;51.104;7.150;2023-03-25T09:35:54;97749.69;;;10.05;94.68
4167;BME280;2097;51.104;7.150;2023-03-25T09:38:21;97764.81;;;10.11;94.25
4167;BME280;2097;51.104;7.150;2023-03-25T09:40:48;97745.13;;;10.08;94.33
4167;BME280;2097;51.104;7.150;2023-03-25T09:43:25;97744.56;;;10.16;93.76
4167;BME280;2097;51.104;7.150;2023-03-25T09:45:55;97743.66;;;10.17;93.66
4167;BME280;2097;51.104;7.150;2023-03-25T09:48:27;97762.25;;;10.21;93.00
4167;BME280;2097;51.104;7.150;2023-03-25T09:51:00;97747.75;;;10.19;92.27
4167;BME280;2097;51.104;7.150;2023-03-25T09:53:32;97684.44;;;9.64;91.92
4167;BME280;2097;51.104;7.150;2023-03-25T09:56:02;97755.09;;;10.25;91.68
4167;BME280;2097;51.104;7.150;2023-03-25T09:58:39;97764.47;;;10.38;90.73
4167;BME280;2097;51.104;7.150;2023-03-25T10:01:19;97761.69;;;10.52;90.32
4167;BME280;2097;51.104;7.150;2023-03-25T10:03:54;97777.25;;;10.52;89.55
4167;BME280;2097;51.104;7.150;2023-03-25T10:06:24;97576.19;;;9.22;88.88
4167;BME280;2097;51.104;7.150;2023-03-25T10:09:02;97591.28;;;9.28;89.40
4167;BME280;2097;51.104;7.150;2023-03-25T10:11:42;97757.19;;;10.20;89.70
4167;BME280;2097;51.104;7.150;2023-03-25T10:14:18;97759.66;;;10.21;89.97
4167;BME280;2097;51.104;7.150;2023-03-25T10:16:56;97740.34;;;10.15;89.29
4167;BME280;2097;51.104;7.150;2023-03-25T10:19:37;97759.41;;;10.14;88.81
4167;BME280;2097;51.104;7.150;2023-03-25T10:22:10;97762.50;;;10.19;88.82
4167;BME280;2097;51.104;7.150;2023-03-25T10:24:43;97753.94;;;10.29;88.11
4167;BME280;2097;51.104;7.150;2023-03-25T10:27:16;97770.13;;;10.43;87.62
4167;BME280;2097;51.104;7.150;2023-03-25T10:29:49;97772.97;;;10.40;87.21
4167;BME280;2097;51.104;7.150;2023-03-25T10:32:26;97761.38;;;10.33;86.79
4167;BME280;2097;51.104;7.150;2023-03-25T10:34:55;97760.94;;;10.39;87.20
4167;BME280;2097;51.104;7.150;2023-03-25T10:37:26;97753.31;;;10.25;87.25
4167;BME280;2097;51.104;7.150;2023-03-25T10:39:59;97793.72;;;10.17;87.44
4167;BME280;2097;51.104;7.150;2023-03-25T10:42:37;97792.44;;;9.87;88.82
4167;BME280;2097;51.104;7.150;2023-03-25T10:45:11;97795.81;;;9.64;90.42
4167;BME280;2097;51.104;7.150;2023-03-25T10:47:39;97640.28;;;8.70;91.85
4167;BME280;2097;51.104;7.150;2023-03-25T10:50:13;97788.72;;;9.78;91.78
4167;BME280;2097;51.104;7.150;2023-03-25T10:52:42;97788.09;;;9.87;91.25
4167;BME280;2097;51.104;7.150;2023-03-25T10:55:20;97787.25;;;9.87;91.30
4167;BME280;2097;51.104;7.150;2023-03-25T10:57:49;97789.97;;;9.85;91.05
4167;BME280;2097;51.104;7.150;2023-03-25T11:00:17;97784.41;;;9.79;90.83
4167;BME280;2097;51.104;7.150;2023-03-25T11:02:47;97789.06;;;9.74;90.55
4167;BME280;2097;51.104;7.150;2023-03-25T11:05:18;97817.16;;;9.67;90.82
4167;BME280;2097;51.104;7.150;2023-03-25T11:07:49;97798.53;;;9.62;91.05
4167;BME280;2097;51.104;7.150;2023-03-25T11:10:19;97815.22;;;9.58;91.45
4167;BME280;2097;51.104;7.150;2023-03-25T11:12:49;97792.09;;;9.68;91.46
4167;BME280;2097;51.104;7.150;2023-03-25T11:15:20;97802.50;;;9.91;90.97
4167;BME280;2097;51.104;7.150;2023-03-25T11:17:55;97796.44;;;10.16;90.56
4167;BME280;2097;51.104;7.150;2023-03-25T11:20:29;97790.47;;;10.26;89.69
4167;BME280;2097;51.104;7.150;2023-03-25T11:23:03;97791.50;;;10.23;89.31
4167;BME280;2097;51.104;7.150;2023-03-25T11:25:35;97799.63;;;10.19;89.24
4167;BME280;2097;51.104;7.150;2023-03-25T11:28:10;97794.88;;;10.13;88.99
4167;BME280;2097;51.104;7.150;2023-03-25T11:31:10;97792.69;;;10.20;89.04
4167;BME280;2097;51.104;7.150;2023-03-25T11:33:38;97801.84;;;10.47;88.02
4167;BME280;2097;51.104;7.150;2023-03-25T11:36:21;97724.13;;;10.00;87.36
4167;BME280;2097;51.104;7.150;2023-03-25T11:38:56;97784.13;;;10.30;87.40
4167;BME280;2097;51.104;7.150;2023-03-25T11:41:27;97797.34;;;10.38;87.92
4167;BME280;2097;51.104;7.150;2023-03-25T11:43:55;97815.03;;;10.44;87.36
4167;BME280;2097;51.104;7.150;2023-03-25T11:46:22;97797.59;;;10.46;87.35
4167;BME280;2097;51.104;7.150;2023-03-25T11:48:50;97818.06;;;10.38;87.04
4167;BME280;2097;51.104;7.150;2023-03-25T11:51:19;97801.34;;;10.42;87.07
4167;BME280;2097;51.104;7.150;2023-03-25T11:53:52;97767.13;;;10.26;87.08
4167;BME280;2097;51.104;7.150;2023-03-25T11:56:26;97792.75;;;10.41;87.45
4167;BME280;2097;51.104;7.150;2023-03-25T11:58:57;97803.13;;;10.41;87.46
4167;BME280;2097;51.104;7.150;2023-03-25T12:01:27;97800.00;;;10.25;87.36
4167;BME280;2097;51.104;7.150;2023-03-25T12:04:11;97804.75;;;10.31;87.71
4167;BME280;2097;51.104;7.150;2023-03-25T12:06:52;97808.66;;;10.14;88.04
4167;BME280;2097;51.104;7.150;2023-03-25T12:09:19;97819.09;;;10.01;89.07
4167;BME280;2097;51.104;7.150;2023-03-25T12:12:00;97810.13;;;10.05;89.66
4167;BME280;2097;51.104;7.150;2023-03-25T12:14:37;97816.22;;;10.17;89.26
4167;BME280;2097;51.104;7.150;2023-03-25T12:17:15;97812.22;;;10.23;89.35
4167;BME280;2097;51.104;7.150;2023-03-25T12:19:51;97809.56;;;10.25;89.13
4167;BME280;2097;51.104;7.150;2023-03-25T12:22:27;97791.03;;;10.19;88.95
4167;BME280;2097;51.104;7.150;2023-03-25T12:25:06;97787.75;;;10.04;89.66
4167;BME280;2097;51.104;7.150;2023-03-25T12:27:45;97798.84;;;9.94;90.05
4167;BME280;2097;51.104;7.150;2023-03-25T12:30:29;97501.97;;;8.15;90.05
4167;BME280;2097;51.104;7.150;2023-03-25T12:33:06;97780.66;;;9.83;90.78
4167;BME280;2097;51.104;7.150;2023-03-25T12:35:40;97780.66;;;9.83;90.83
4167;BME280;2097;51.104;7.150;2023-03-25T12:38:21;97791.25;;;9.80;90.74
4167;BME280;2097;51.104;7.150;2023-03-25T12:41:02;97817.56;;;9.74;91.15
4167;BME280;2097;51.104;7.150;2023-03-25T12:43:43;97798.94;;;9.69;91.17
4167;BME280;2097;51.104;7.150;2023-03-25T12:46:23;97798.09;;;9.68;91.09
4167;BME280;2097;51.104;7.150;2023-03-25T12:49:06;97780.78;;;9.69;91.68
4167;BME280;2097;51.104;7.150;2023-03-25T12:51:43;97783.34;;;9.81;91.52
4167;BME280;2097;51.104;7.150;2023-03-25T12:54:27;97720.03;;;9.49;92.11
4167;BME280;2097;51.104;7.150;2023-03-25T12:57:08;97775.53;;;9.94;92.23
4167;BME280;2097;51.104;7.150;2023-03-25T13:03:10;97773.31;;;10.47;91.11
4167;BME280;2097;51.104;7.150;2023-03-25T13:05:49;97686.22;;;10.10;90.45
4167;BME280;2097;51.104;7.150;2023-03-25T13:08:22;97753.88;;;10.98;89.47
4167;BME280;2097;51.104;7.150;2023-03-25T13:10:55;97626.06;;;10.39;88.01
4167;BME280;2097;51.104;7.150;2023-03-25T13:13:24;97751.06;;;11.23;87.98
4167;BME280;2097;51.104;7.150;2023-03-25T13:15:58;97765.34;;;11.39;86.86
4167;BME280;2097;51.104;7.150;2023-03-25T13:18:31;97575.03;;;10.51;85.54
4167;BME280;2097;51.104;7.150;2023-03-25T13:21:03;97761.00;;;11.61;85.10
4167;BME280;2097;51.104;7.150;2023-03-25T13:23:34;97748.34;;;11.68;84.36
4167;BME280;2097;51.104;7.150;2023-03-25T13:26:04;97675.03;;;11.32;83.81
4167;BME280;2097;51.104;7.150;2023-03-25T13:28:36;97739.63;;;11.58;84.05
4167;BME280;2097;51.104;7.150;2023-03-25T13:31:07;97758.25;;;11.41;83.64
4167;BME280;2097;51.104;7.150;2023-03-25T13:33:46;97749.75;;;11.17;83.42
4167;BME280;2097;51.104;7.150;2023-03-25T13:36:24;97763.41;;;10.97;83.30
4167;BME280;2097;51.104;7.150;2023-03-25T13:38:55;97747.09;;;10.73;83.49
4167;BME280;2097;51.104;7.150;2023-03-25T13:41:28;97638.75;;;9.63;84.00
4167;BME280;2097;51.104;7.150;2023-03-25T13:44:01;97784.94;;;9.95;84.84
4167;BME280;2097;51.104;7.150;2023-03-25T13:46:33;97836.16;;;9.43;85.94
4167;BME280;2097;51.104;7.150;2023-03-25T13:49:05;97844.88;;;8.13;90.59
4167;BME280;2097;51.104;7.150;2023-03-25T13:51:37;97834.75;;;7.42;94.68
4167;BME280;2097;51.104;7.150;2023-03-25T13:54:08;97805.72;;;6.96;96.88